Time;durP1;ratioP1;P1;durP2;ratioP2;P2;SDS_P1;SDS_P2;PMS_P1;PMS_P2;Temp;Humidity;BMP_temperature;BMP_pressure;BME280_temperature;BME280_humidity;BME280_pressure;Samples;Min_cycle;Max_cycle;Signal;HPM_P1;HPM_P2
2021/09/06 00:00:22;;;;;;;4.63;3.15;;;;;;;11.76;93.94;101720.38;5009339;28;20040;-81
2021/09/06 00:02:49;;;;;;;6.05;3.83;;;;;;;11.75;94.88;101720.41;5026183;28;20038;-81
2021/09/06 00:05:16;;;;;;;6.63;4.05;;;;;;;11.75;95.53;101720.41;5034914;28;20037;-81
2021/09/06 00:07:47;;;;;;;7.63;3.75;;;;;;;11.80;93.75;101716.00;4995429;28;20037;-81
2021/09/06 00:10:40;;;;;;;6.13;3.42;;;;;;;11.58;95.54;101717.88;5014016;28;20091;-81
2021/09/06 00:13:10;;;;;;;4.90;3.70;;;;;;;11.65;94.70;101710.78;5035669;28;20071;-81
2021/09/06 00:15:38;;;;;;;7.93;3.60;;;;;;;11.59;94.98;101709.06;5000134;28;20038;-82
2021/09/06 00:18:05;;;;;;;5.55;3.35;;;;;;;11.59;95.45;101711.69;5008684;28;20490;-82
2021/09/06 00:20:33;;;;;;;5.05;3.38;;;;;;;11.72;95.15;101702.78;5014382;28;20041;-81
2021/09/06 00:23:00;;;;;;;5.68;3.90;;;;;;;11.70;94.07;101707.22;5013571;28;20216;-82
2021/09/06 00:25:27;;;;;;;4.80;3.70;;;;;;;11.63;93.77;101704.63;5024701;28;20075;-86
2021/09/06 00:27:53;;;;;;;5.22;3.92;;;;;;;11.53;95.77;101710.00;5016674;28;20049;-82
2021/09/06 00:30:46;;;;;;;6.72;3.78;;;;;;;11.44;95.77;101707.44;5018695;22;20045;31
2021/09/06 00:33:13;;;;;;;3.85;3.30;;;;;;;11.47;94.61;101711.81;4922820;29;19958;-82
2021/09/06 00:35:40;;;;;;;4.40;3.50;;;;;;;11.36;96.63;101708.38;4936761;29;20047;-83
2021/09/06 00:38:07;;;;;;;5.93;4.15;;;;;;;11.39;95.37;101705.69;4950912;28;20082;-83
2021/09/06 00:40:33;;;;;;;5.57;4.10;;;;;;;11.41;94.75;101706.56;4960226;28;20043;-83
2021/09/06 00:43:00;;;;;;;6.75;4.18;;;;;;;11.36;95.91;101705.72;4936326;28;20055;-83
2021/09/06 00:45:27;;;;;;;6.57;4.15;;;;;;;11.37;94.91;101700.41;4950287;28;20148;-83
2021/09/06 00:47:54;;;;;;;4.85;3.85;;;;;;;11.30;95.14;101704.00;4938562;28;20075;-83
2021/09/06 00:50:21;;;;;;;5.43;3.60;;;;;;;11.40;95.57;101704.78;4955441;28;20042;-83
2021/09/06 00:52:48;;;;;;;7.93;3.85;;;;;;;11.29;96.81;101702.25;4936068;28;20050;-84
2021/09/06 00:55:16;;;;;;;6.40;4.10;;;;;;;11.26;96.43;101703.13;4954413;28;20043;-83
2021/09/06 00:57:43;;;;;;;4.15;3.75;;;;;;;11.22;96.05;101700.50;4958975;28;20043;-83
2021/09/06 01:00:11;;;;;;;6.22;3.58;;;;;;;11.13;96.43;101704.09;4937520;28;20274;-83
2021/09/06 01:02:38;;;;;;;5.40;3.63;;;;;;;11.33;96.06;101700.44;4933956;28;20042;-83
2021/09/06 01:05:06;;;;;;;5.60;3.63;;;;;;;11.13;97.42;101711.16;4937710;28;20579;-83
2021/09/06 01:07:34;;;;;;;4.78;4.10;;;;;;;11.17;96.71;101708.47;4935869;28;20042;-84
2021/09/06 01:10:02;;;;;;;5.93;4.03;;;;;;;11.11;96.12;101699.72;4936488;28;20500;-83
2021/09/06 01:12:29;;;;;;;5.13;3.65;;;;;;;11.03;98.26;101709.47;4951354;28;20054;-83
2021/09/06 01:14:55;;;;;;;5.65;3.47;;;;;;;11.07;98.11;101705.91;4949511;28;20049;-83
2021/09/06 01:17:23;;;;;;;6.28;4.07;;;;;;;11.08;98.45;101703.22;4969170;28;20049;-84
2021/09/06 01:19:49;;;;;;;5.57;3.47;;;;;;;11.13;97.77;101700.56;4940074;28;20089;-83
2021/09/06 01:22:18;;;;;;;4.97;3.67;;;;;;;10.97;99.19;101703.31;4936880;28;20051;-83
2021/09/06 01:24:48;;;;;;;6.82;3.92;;;;;;;10.90;99.21;101704.22;4938127;28;20054;-82
2021/09/06 01:27:15;;;;;;;7.38;3.47;;;;;;;10.90;99.96;101706.00;4949766;28;20142;-83
2021/09/06 01:29:42;;;;;;;6.63;3.85;;;;;;;10.88;99.68;101705.13;4957489;28;20038;-83
2021/09/06 01:32:10;;;;;;;6.22;3.40;;;;;;;10.92;98.98;101705.09;4937388;28;20039;-83
2021/09/06 01:34:37;;;;;;;5.70;4.05;;;;;;;10.89;100.00;101697.19;4959944;28;20310;-82
2021/09/06 01:37:04;;;;;;;9.48;4.38;;;;;;;10.89;98.57;101698.94;4952663;28;20070;-83
2021/09/06 01:39:31;;;;;;;7.55;4.40;;;;;;;10.88;97.49;101705.13;4935829;28;20399;-83
2021/09/06 01:41:59;;;;;;;5.60;4.22;;;;;;;10.78;99.81;101698.13;4929567;28;21143;-83
2021/09/06 01:44:26;;;;;;;4.80;3.70;;;;;;;10.66;100.00;101692.00;4953507;28;20050;-83
2021/09/06 01:46:53;;;;;;;5.63;4.13;;;;;;;10.68;100.00;101697.31;4919738;29;20124;-83
2021/09/06 01:49:19;;;;;;;7.25;4.50;;;;;;;10.64;100.00;101695.53;4944018;28;20039;-83
2021/09/06 01:51:46;;;;;;;7.20;4.05;;;;;;;10.63;100.00;101685.84;4977499;28;20043;-83
2021/09/06 01:54:13;;;;;;;6.00;4.00;;;;;;;10.66;99.11;101684.06;4935338;28;20500;-82
2021/09/06 01:56:40;;;;;;;5.07;3.70;;;;;;;10.62;99.14;101681.47;4934978;28;20162;-83
2021/09/06 01:59:06;;;;;;;8.18;4.70;;;;;;;10.50;100.00;101673.56;4939006;28;20058;-82
2021/09/06 02:01:33;;;;;;;9.15;4.32;;;;;;;10.50;100.00;101685.00;4952004;28;20531;-82
2021/09/06 02:04:00;;;;;;;5.43;4.03;;;;;;;10.53;100.00;101682.38;4916870;28;20508;-83
2021/09/06 02:06:27;;;;;;;5.75;3.70;;;;;;;10.47;100.00;101687.69;4968276;28;20058;-83
2021/09/06 02:08:53;;;;;;;4.88;4.03;;;;;;;10.46;100.00;101688.56;4965328;28;20047;-83
2021/09/06 02:11:20;;;;;;;5.72;3.92;;;;;;;10.35;100.00;101688.59;4984305;28;20047;-83
2021/09/06 02:13:47;;;;;;;6.15;4.20;;;;;;;10.39;100.00;101687.69;4959118;28;20117;-83
2021/09/06 02:16:13;;;;;;;6.32;3.90;;;;;;;10.42;100.00;101695.63;4968444;28;20047;-83
2021/09/06 02:18:40;;;;;;;7.75;4.05;;;;;;;10.36;100.00;101702.69;4947213;28;20134;-83
2021/09/06 02:21:07;;;;;;;4.88;3.90;;;;;;;10.34;100.00;101694.78;4952682;28;20039;-83
2021/09/06 02:23:33;;;;;;;4.65;3.85;;;;;;;10.39;100.00;101695.63;4934333;29;20054;-82
2021/09/06 02:26:00;;;;;;;5.75;4.05;;;;;;;10.33;100.00;101698.28;4964485;28;20084;-83
2021/09/06 02:28:27;;;;;;;5.22;4.43;;;;;;;10.31;100.00;101702.69;4959591;28;20035;-82
2021/09/06 02:30:54;;;;;;;6.57;4.00;;;;;;;10.25;100.00;101705.34;4952016;28;20098;-82
2021/09/06 02:33:21;;;;;;;5.93;3.63;;;;;;;10.32;100.00;101701.81;4932519;28;20046;-83
2021/09/06 02:35:47;;;;;;;4.53;3.92;;;;;;;10.27;100.00;101710.66;4959706;28;20411;-83
2021/09/06 02:38:14;;;;;;;5.20;4.05;;;;;;;10.18;100.00;101711.50;4954562;28;20050;-82
2021/09/06 02:40:41;;;;;;;6.15;3.95;;;;;;;10.15;100.00;101715.00;4951819;28;20126;-83
2021/09/06 02:43:07;;;;;;;5.45;3.88;;;;;;;10.19;100.00;101707.97;4935614;28;20034;-83
2021/09/06 02:45:34;;;;;;;6.00;4.30;;;;;;;10.11;100.00;101705.34;4951531;28;20039;-83
2021/09/06 02:48:01;;;;;;;4.43;3.22;;;;;;;10.05;100.00;101699.19;4941362;28;20063;-83
2021/09/06 02:50:27;;;;;;;5.35;4.07;;;;;;;10.02;100.00;101710.66;4971812;28;20119;-83
2021/09/06 02:52:54;;;;;;;6.30;3.97;;;;;;;10.04;100.00;101702.72;4950753;28;20051;-83
2021/09/06 02:55:21;;;;;;;5.93;4.38;;;;;;;10.04;100.00;101697.44;4952803;28;20097;-83
2021/09/06 02:57:47;;;;;;;5.03;3.70;;;;;;;9.97;100.00;101693.94;4965178;28;20098;-83
2021/09/06 03:00:14;;;;;;;5.82;3.90;;;;;;;9.94;100.00;101701.00;4962192;28;20050;-83
2021/09/06 03:02:41;;;;;;;4.63;3.78;;;;;;;9.93;100.00;101694.84;4949670;28;20566;-83
2021/09/06 03:05:08;;;;;;;4.90;4.07;;;;;;;9.83;100.00;101693.06;4960322;28;20514;-83
2021/09/06 03:07:36;;;;;;;6.85;4.25;;;;;;;9.79;100.00;101688.69;4964681;28;20045;-83
2021/09/06 03:10:03;;;;;;;5.38;3.92;;;;;;;9.79;100.00;101683.41;4951646;28;20393;-83
2021/09/06 03:12:29;;;;;;;4.90;3.90;;;;;;;9.84;100.00;101684.28;4934866;28;20587;-83
2021/09/06 03:14:56;;;;;;;6.53;3.65;;;;;;;9.83;100.00;101691.28;4935788;28;20039;-83
2021/09/06 03:17:23;;;;;;;4.57;3.05;;;;;;;9.78;100.00;101694.84;4952267;28;20389;-83
2021/09/06 03:19:49;;;;;;;5.60;4.32;;;;;;;9.73;100.00;101689.56;4951977;28;20074;-83
2021/09/06 03:22:17;;;;;;;6.43;3.72;;;;;;;9.70;100.00;101692.19;4953059;28;20057;-82
2021/09/06 03:24:44;;;;;;;6.63;4.40;;;;;;;9.68;100.00;101696.59;4953544;28;20043;-82
2021/09/06 03:27:11;;;;;;;5.60;4.00;;;;;;;9.64;100.00;101691.31;4952624;28;20050;-83
2021/09/06 03:29:38;;;;;;;6.05;4.10;;;;;;;9.56;100.00;101686.91;4952117;28;20051;-82
2021/09/06 03:32:05;;;;;;;4.43;3.90;;;;;;;9.53;100.00;101688.69;4949598;28;20059;-82
2021/09/06 03:34:31;;;;;;;4.82;3.83;;;;;;;9.48;100.00;101688.66;4968789;28;20062;-82
2021/09/06 03:36:58;;;;;;;7.00;4.90;;;;;;;9.48;100.00;101682.50;4936211;28;20057;-82
2021/09/06 03:39:25;;;;;;;6.93;4.40;;;;;;;9.41;100.00;101683.38;4935669;28;20070;-83
2021/09/06 03:41:51;;;;;;;10.70;5.03;;;;;;;9.34;100.00;101679.00;4955089;28;20063;-83
2021/09/06 03:44:19;;;;;;;5.53;4.03;;;;;;;9.34;100.00;101677.25;4969105;28;20057;-82
2021/09/06 03:46:46;;;;;;;5.97;4.13;;;;;;;9.36;100.00;101678.13;4958229;28;20043;-83
2021/09/06 03:49:12;;;;;;;6.32;4.50;;;;;;;9.36;100.00;101680.75;4970094;28;20051;-82
2021/09/06 03:51:39;;;;;;;5.70;3.60;;;;;;;9.32;100.00;101682.50;4969526;28;20046;-82
2021/09/06 03:54:05;;;;;;;6.80;3.90;;;;;;;9.26;100.00;101684.28;4957774;28;20094;-82
2021/09/06 03:56:32;;;;;;;4.63;3.80;;;;;;;9.24;100.00;101678.97;4956965;28;20043;-82
2021/09/06 03:58:59;;;;;;;5.63;4.00;;;;;;;9.25;100.00;101672.84;4955079;28;20045;-83
2021/09/06 04:01:25;;;;;;;5.85;4.10;;;;;;;9.26;100.00;101681.63;4921781;28;20444;-82
2021/09/06 04:03:53;;;;;;;6.90;3.95;;;;;;;9.32;100.00;101684.25;4953301;28;20050;-82
2021/09/06 04:06:20;;;;;;;5.57;3.80;;;;;;;9.30;100.00;101672.84;4954374;28;20047;-82
2021/09/06 04:08:46;;;;;;;5.05;4.00;;;;;;;9.26;100.00;101681.63;4965783;28;20121;-82
2021/09/06 04:11:14;;;;;;;6.55;4.45;;;;;;;9.18;100.00;101676.34;4972477;28;20042;-83
2021/09/06 04:13:42;;;;;;;6.80;4.30;;;;;;;9.15;100.00;101678.97;4954584;28;20043;-82
2021/09/06 04:16:09;;;;;;;6.80;4.63;;;;;;;9.22;100.00;101682.50;4972005;28;20133;-82
2021/09/06 04:18:36;;;;;;;7.03;4.82;;;;;;;9.17;100.00;101692.19;4938878;28;20043;-82
2021/09/06 04:21:04;;;;;;;5.72;4.07;;;;;;;9.05;100.00;101693.00;4956846;28;20072;-83
2021/09/06 04:23:31;;;;;;;5.88;3.97;;;;;;;9.04;100.00;101688.63;4949660;28;20034;-82
2021/09/06 04:26:00;;;;;;;4.57;3.70;;;;;;;9.01;100.00;101686.88;4951675;28;20460;-82
2021/09/06 04:28:28;;;;;;;6.32;3.65;;;;;;;9.04;100.00;101683.34;4970531;28;20051;-83
2021/09/06 04:30:56;;;;;;;6.78;4.28;;;;;;;9.05;100.00;101689.50;4953592;28;20039;-82
2021/09/06 04:33:24;;;;;;;6.57;3.80;;;;;;;9.00;100.00;101686.88;4938299;28;20106;-82
2021/09/06 04:35:51;;;;;;;5.82;3.53;;;;;;;9.01;100.00;101694.78;4949254;28;20065;-82
2021/09/06 04:38:19;;;;;;;5.35;3.80;;;;;;;8.99;100.00;101691.22;4953301;28;20055;-82
2021/09/06 04:40:45;;;;;;;5.07;3.67;;;;;;;8.93;100.00;101693.88;4951928;28;20121;-82
2021/09/06 04:43:12;;;;;;;7.20;3.80;;;;;;;8.94;100.00;101695.63;4968852;28;20612;-82
2021/09/06 04:45:40;;;;;;;5.78;3.83;;;;;;;8.89;100.00;101699.13;4969196;28;20046;-82
2021/09/06 04:48:07;;;;;;;5.60;4.05;;;;;;;8.86;100.00;101697.34;4967280;28;20046;-82
2021/09/06 04:50:34;;;;;;;8.07;4.05;;;;;;;8.89;100.00;101697.34;4954481;28;20035;-82
2021/09/06 04:53:00;;;;;;;6.75;4.38;;;;;;;8.91;100.00;101700.91;4969545;28;20051;-81
2021/09/06 04:55:27;;;;;;;6.90;3.85;;;;;;;8.93;100.00;101704.41;4939905;28;20039;-81
2021/09/06 04:57:53;;;;;;;5.40;4.47;;;;;;;8.91;100.00;101706.16;4967335;28;20054;-82
2021/09/06 05:00:21;;;;;;;6.47;4.25;;;;;;;8.89;100.00;101710.53;4936396;28;20051;-82
2021/09/06 05:02:47;;;;;;;4.93;3.83;;;;;;;8.92;100.00;101705.28;4968756;28;20039;-82
2021/09/06 05:05:14;;;;;;;6.20;4.70;;;;;;;8.97;100.00;101702.66;4951495;28;20109;-82
2021/09/06 05:07:43;;;;;;;6.10;3.55;;;;;;;8.97;100.00;101702.66;4937562;28;20070;-82
2021/09/06 05:10:09;;;;;;;7.53;4.00;;;;;;;8.96;100.00;101706.16;4954530;28;20105;-82
2021/09/06 05:12:36;;;;;;;6.75;4.35;;;;;;;8.98;100.00;101710.56;4970976;28;20500;-82
2021/09/06 05:15:03;;;;;;;7.53;4.07;;;;;;;8.97;100.00;101714.06;4953467;28;20066;-81
2021/09/06 05:17:30;;;;;;;7.40;4.03;;;;;;;8.99;100.00;101714.06;4942161;28;20055;-82
2021/09/06 05:19:57;;;;;;;4.82;3.90;;;;;;;8.95;100.00;101710.56;4967381;28;20034;-82
2021/09/06 05:22:24;;;;;;;6.77;4.20;;;;;;;8.97;100.00;101707.94;4968661;28;20042;-82
2021/09/06 05:24:54;;;;;;;5.22;3.75;;;;;;;9.06;100.00;101707.94;4967494;28;20051;-83
2021/09/06 05:27:21;;;;;;;5.57;4.20;;;;;;;9.09;100.00;101709.72;4940181;28;20101;-81
2021/09/06 05:29:47;;;;;;;5.97;3.65;;;;;;;9.04;100.00;101712.34;4946501;28;20042;-82
2021/09/06 05:32:14;;;;;;;4.93;3.35;;;;;;;9.06;100.00;101722.88;4949658;29;20525;-82
2021/09/06 05:34:41;;;;;;;8.30;3.97;;;;;;;9.07;100.00;101722.88;4948594;28;20042;-82
2021/09/06 05:37:07;;;;;;;5.80;4.28;;;;;;;9.21;100.00;101733.47;4936914;28;20118;-82
2021/09/06 05:39:34;;;;;;;6.80;3.80;;;;;;;9.27;100.00;101733.50;4953826;28;20129;-83
2021/09/06 05:42:01;;;;;;;5.97;4.45;;;;;;;9.35;100.00;101730.88;4951143;28;20046;-83
2021/09/06 05:44:29;;;;;;;5.88;3.95;;;;;;;9.38;100.00;101731.75;4940517;28;20500;-82
2021/09/06 05:46:56;;;;;;;4.80;3.60;;;;;;;9.48;100.00;101725.59;4937138;28;20046;-82
2021/09/06 05:49:22;;;;;;;4.68;3.72;;;;;;;9.55;100.00;101727.38;4962478;28;20456;-82
2021/09/06 05:51:49;;;;;;;4.50;3.70;;;;;;;9.63;100.00;101731.78;4950876;28;20044;-82
2021/09/06 05:54:15;;;;;;;7.30;4.32;;;;;;;9.70;100.00;101721.22;4970133;28;20105;-82
2021/09/06 05:56:42;;;;;;;5.47;4.10;;;;;;;9.92;100.00;101714.19;4922096;28;20057;-82
2021/09/06 05:59:09;;;;;;;4.90;3.70;;;;;;;9.85;100.00;101717.72;4969152;28;20074;-82
2021/09/06 06:01:35;;;;;;;7.30;4.13;;;;;;;9.98;100.00;101715.94;4953152;28;20054;-82
2021/09/06 06:04:03;;;;;;;4.63;3.35;;;;;;;10.07;100.00;101713.28;4953391;28;20453;-82
2021/09/06 06:06:30;;;;;;;7.47;4.18;;;;;;;10.16;100.00;101716.78;4955927;28;20062;-82
2021/09/06 06:08:56;;;;;;;6.47;4.07;;;;;;;10.28;100.00;101715.03;4936575;28;20515;-82
2021/09/06 06:11:23;;;;;;;8.48;4.00;;;;;;;10.46;100.00;101716.75;4953012;28;20065;-82
2021/09/06 06:13:49;;;;;;;4.72;3.80;;;;;;;10.58;100.00;101719.34;4967820;28;20568;-82
2021/09/06 06:16:16;;;;;;;4.57;3.78;;;;;;;10.79;100.00;101716.63;4937203;28;20440;-83
2021/09/06 06:18:43;;;;;;;4.82;3.50;;;;;;;10.91;100.00;101724.47;4951226;28;20082;-82
2021/09/06 06:21:13;;;;;;;8.20;4.10;;;;;;;11.03;100.00;101722.69;4967622;28;20039;-82
2021/09/06 06:23:39;;;;;;;8.77;4.32;;;;;;;11.17;100.00;101724.34;4940921;28;20043;-82
2021/09/06 06:26:06;;;;;;;6.05;3.47;;;;;;;11.24;100.00;101726.06;4954161;28;20478;-82
2021/09/06 06:28:33;;;;;;;4.10;3.20;;;;;;;11.45;100.00;101724.19;4950942;28;20106;-83
2021/09/06 06:30:59;;;;;;;8.30;3.55;;;;;;;11.83;100.00;101721.25;4953559;28;20456;-82
2021/09/06 06:33:29;;;;;;;11.18;3.67;;;;;;;12.59;93.58;101714.28;5123099;22;20041;-82
2021/09/06 06:35:58;;;;;;;4.65;2.75;;;;;;;13.23;88.62;101717.00;5030115;28;20051;-81
2021/09/06 06:38:26;;;;;;;4.40;2.95;;;;;;;14.09;81.98;101718.25;5034626;28;20041;-82
2021/09/06 06:40:53;;;;;;;3.58;2.72;;;;;;;15.03;76.69;101719.94;5006815;28;20041;-81
2021/09/06 06:43:19;;;;;;;4.80;2.30;;;;;;;15.49;75.66;101719.78;5010236;28;20135;-82
2021/09/06 06:45:49;;;;;;;3.20;2.30;;;;;;;16.25;73.37;101716.97;5014061;28;20041;-84
2021/09/06 06:48:22;;;;;;;6.50;3.45;;;;;;;16.92;63.28;101719.56;5015234;28;20131;-81
2021/09/06 06:50:50;;;;;;;3.20;2.50;;;;;;;17.05;62.47;101724.47;4999996;28;20087;-84
2021/09/06 06:53:17;;;;;;;4.88;2.50;;;;;;;17.27;65.77;101724.69;5014780;28;20033;-82
2021/09/06 06:55:44;;;;;;;3.80;2.97;;;;;;;17.16;64.25;101727.69;5016230;28;20045;-82
2021/09/06 06:58:12;;;;;;;2.50;2.22;;;;;;;17.49;66.52;101723.97;5014773;28;20472;-81
2021/09/06 07:00:38;;;;;;;5.28;3.40;;;;;;;16.73;65.81;101732.53;5015247;28;20051;-82
2021/09/06 07:03:05;;;;;;;5.57;2.42;;;;;;;17.05;65.41;101727.13;5049360;28;20049;-81
2021/09/06 07:05:33;;;;;;;5.82;2.63;;;;;;;17.11;63.29;101731.41;5030980;28;20041;-81
2021/09/06 07:08:00;;;;;;;4.82;2.72;;;;;;;16.92;60.88;101732.91;5026699;28;20046;-83
2021/09/06 07:10:27;;;;;;;4.40;2.60;;;;;;;16.93;63.12;101731.97;5003372;28;20044;-82
2021/09/06 07:12:54;;;;;;;3.28;2.80;;;;;;;16.95;63.09;101732.78;5013718;28;20045;-81
2021/09/06 07:15:21;;;;;;;3.47;2.70;;;;;;;16.75;64.93;101723.59;5014581;28;20044;-83
2021/09/06 07:17:48;;;;;;;5.55;2.58;;;;;;;16.35;63.89;101722.94;5014420;28;20590;-84
2021/09/06 07:20:14;;;;;;;4.82;2.83;;;;;;;16.19;69.55;101725.13;4999069;28;20079;-86
2021/09/06 07:22:43;;;;;;;4.22;2.80;;;;;;;16.06;67.31;101727.25;4997315;28;20034;-84
2021/09/06 07:25:10;;;;;;;3.53;2.67;;;;;;;15.91;66.98;101728.53;5013617;28;20525;-83
2021/09/06 07:27:37;;;;;;;4.40;2.47;;;;;;;16.00;70.48;101733.63;5013602;28;20051;-82
2021/09/06 07:30:04;;;;;;;4.57;2.50;;;;;;;15.97;67.86;101730.13;5014380;28;20052;-81
2021/09/06 07:32:32;;;;;;;3.72;2.67;;;;;;;15.97;65.43;101728.34;5022313;28;20341;-84
2021/09/06 07:35:03;;;;;;;4.32;3.13;;;;;;;15.81;68.72;101724.34;4997109;28;20068;-83
2021/09/06 07:37:31;;;;;;;3.97;2.33;;;;;;;16.04;69.52;101723.75;5024729;28;20068;-83
2021/09/06 07:39:58;;;;;;;5.18;2.80;;;;;;;16.05;70.44;101726.34;5012425;28;20498;-82
2021/09/06 07:42:25;;;;;;;6.90;2.88;;;;;;;16.21;67.20;101720.63;5014563;28;20118;-84
2021/09/06 07:44:56;;;;;;;4.28;2.70;;;;;;;16.13;64.71;101727.97;5020619;28;20049;-84
2021/09/06 07:47:23;;;;;;;5.82;2.95;;;;;;;16.26;69.05;101732.06;5024754;28;20674;-83
2021/09/06 07:49:50;;;;;;;6.50;3.40;;;;;;;16.02;68.82;101731.78;5024365;28;20077;-82
2021/09/06 07:52:16;;;;;;;6.95;3.28;;;;;;;15.68;65.52;101730.88;5030532;28;20045;-82
2021/09/06 07:54:43;;;;;;;4.30;3.20;;;;;;;16.17;66.61;101725.19;5014779;28;20123;-85
2021/09/06 07:57:10;;;;;;;6.07;3.20;;;;;;;16.36;67.43;101730.00;4997345;28;20419;-83
2021/09/06 07:59:37;;;;;;;5.53;3.40;;;;;;;16.47;65.09;101725.25;5013753;28;20075;-83
2021/09/06 08:02:04;;;;;;;4.93;3.22;;;;;;;16.57;63.48;101732.09;5024400;28;20045;-84
2021/09/06 08:04:31;;;;;;;4.32;2.80;;;;;;;16.56;63.40;101735.66;5006954;28;20128;-82
2021/09/06 08:06:58;;;;;;;3.67;2.60;;;;;;;16.55;64.08;101733.91;5010581;28;21260;-83
2021/09/06 08:09:28;;;;;;;6.00;3.58;;;;;;;16.39;65.53;101730.78;5014438;28;20056;-83
2021/09/06 08:11:57;;;;;;;4.47;2.80;;;;;;;16.55;66.42;101734.78;5030393;28;20060;-82
2021/09/06 08:14:27;;;;;;;5.97;3.20;;;;;;;16.80;68.01;101729.66;5014414;28;20041;-83
2021/09/06 08:16:54;;;;;;;2.97;2.65;;;;;;;16.72;67.66;101737.00;4995039;28;20049;-85
2021/09/06 08:19:21;;;;;;;5.53;3.05;;;;;;;16.83;65.24;101739.38;5025022;28;20103;-84
2021/09/06 08:21:48;;;;;;;4.57;3.42;;;;;;;16.98;63.57;101738.03;5009485;28;20091;-84
2021/09/06 08:24:15;;;;;;;5.05;3.05;;;;;;;16.80;64.78;101734.13;4987656;28;20049;-82
2021/09/06 08:26:43;;;;;;;3.78;3.13;;;;;;;16.81;65.94;101736.72;5014218;28;20048;-81
2021/09/06 08:29:10;;;;;;;5.07;2.97;;;;;;;16.81;66.26;101742.06;5018110;28;20050;-81
2021/09/06 08:31:37;;;;;;;6.65;4.10;;;;;;;16.79;65.42;101751.06;5033153;28;20098;-82
2021/09/06 08:34:04;;;;;;;3.72;2.97;;;;;;;16.64;65.03;101746.13;5030580;28;20059;-82
2021/09/06 08:36:31;;;;;;;5.20;3.67;;;;;;;16.89;65.96;101736.50;4998575;28;20630;-83
2021/09/06 08:38:58;;;;;;;5.15;3.72;;;;;;;17.02;65.07;101737.91;4994496;28;20071;-85
2021/09/06 08:41:25;;;;;;;6.18;3.85;;;;;;;17.09;67.23;101733.28;5018397;28;20519;-83
2021/09/06 08:43:52;;;;;;;5.90;3.65;;;;;;;17.18;63.31;101743.66;5027953;28;20084;-84
2021/09/06 08:46:23;;;;;;;5.53;3.38;;;;;;;17.26;67.03;101733.63;4999728;28;20072;-82
2021/09/06 08:48:54;;;;;;;5.93;3.70;;;;;;;17.34;63.91;101734.25;5017125;28;20288;-82
2021/09/06 08:51:21;;;;;;;5.85;3.58;;;;;;;17.63;62.55;101732.44;5020833;28;20051;-84
2021/09/06 08:53:48;;;;;;;4.18;3.33;;;;;;;17.64;64.71;101734.19;5001528;28;20095;-82
2021/09/06 08:56:17;;;;;;;5.63;3.20;;;;;;;17.70;63.17;101734.03;5042813;28;20453;-82
2021/09/06 08:58:59;;;;;;;6.10;3.72;;;;;;;17.91;64.16;101738.66;5026328;28;20498;-85
2021/09/06 09:01:38;;;;;;;6.68;3.22;;;;;;;17.77;61.85;101732.91;5033878;28;20136;-83
2021/09/06 09:04:17;;;;;;;5.90;3.22;;;;;;;18.13;58.59;101732.56;5031201;28;20057;-82
2021/09/06 09:06:55;;;;;;;4.75;3.20;;;;;;;18.28;60.64;101734.72;5032981;28;20073;-82
2021/09/06 09:09:33;;;;;;;6.82;3.88;;;;;;;18.28;59.98;101740.94;5004340;28;20094;-83
2021/09/06 09:12:16;;;;;;;7.43;3.90;;;;;;;18.24;62.21;101739.31;5044857;28;20072;-85
2021/09/06 09:14:51;;;;;;;6.18;3.58;;;;;;;18.51;60.35;101739.25;5032946;28;20414;-84
2021/09/06 09:17:18;;;;;;;6.88;3.80;;;;;;;18.69;58.13;101730.56;5011657;28;20062;-81
2021/09/06 09:19:46;;;;;;;5.72;3.88;;;;;;;18.74;57.60;101739.28;5013340;28;20075;-82
2021/09/06 09:22:29;;;;;;;5.88;3.50;;;;;;;18.92;60.22;101736.84;4999100;28;20121;-83
2021/09/06 09:25:01;;;;;;;5.43;4.00;;;;;;;18.96;62.22;101744.72;5034043;28;20049;-81
2021/09/06 09:27:51;;;;;;;6.25;3.85;;;;;;;19.23;61.36;101742.75;5019337;28;20102;-84
2021/09/06 09:30:24;;;;;;;9.32;3.70;;;;;;;19.04;56.96;101741.75;5034578;28;20041;-83
2021/09/06 09:33:06;;;;;;;5.78;3.63;;;;;;;19.48;57.95;101737.31;5030089;28;20068;-81
2021/09/06 09:35:35;;;;;;;;;;;;;;;19.70;58.88;101731.13;5011952;28;20088;-84
2021/09/06 09:38:07;;;;;;;5.78;3.70;;;;;;;19.62;57.55;101734.97;4999595;28;19920;-83
2021/09/06 09:40:39;;;;;;;5.43;3.42;;;;;;;19.61;57.48;101727.88;5011796;28;20437;-83
2021/09/06 09:43:07;;;;;;;5.13;3.42;;;;;;;19.78;59.01;101726.31;5034203;28;20056;-83
2021/09/06 09:45:35;;;;;;;5.00;3.53;;;;;;;19.95;55.47;101718.41;5017862;28;20525;-83
2021/09/06 09:48:03;;;;;;;6.05;4.05;;;;;;;19.59;54.50;101727.06;4997590;28;20124;-83
2021/09/06 09:50:32;;;;;;;5.05;3.25;;;;;;;20.05;54.46;101717.06;5015490;28;20045;-82
2021/09/06 09:52:59;;;;;;;6.38;3.50;;;;;;;20.28;55.33;101720.59;5015077;28;20065;-83
2021/09/06 09:55:31;;;;;;;4.85;3.58;;;;;;;20.14;56.23;101722.03;5016890;28;20132;-83
2021/09/06 09:57:58;;;;;;;4.30;3.50;;;;;;;20.07;53.82;101731.28;5013948;28;20068;-84
2021/09/06 10:00:26;;;;;;;4.95;3.47;;;;;;;20.28;56.69;101715.22;5015918;28;20051;-82
2021/09/06 10:02:56;;;;;;;5.97;4.05;;;;;;;20.58;56.53;101715.66;5008968;28;20437;-84
2021/09/06 10:05:31;;;;;;;5.95;4.10;;;;;;;20.71;52.81;101708.81;5014864;28;20050;-82
2021/09/06 10:07:59;;;;;;;5.28;3.58;;;;;;;20.53;54.08;101713.22;5014954;28;20052;-82
2021/09/06 10:10:26;;;;;;;6.53;4.32;;;;;;;20.80;52.02;101711.06;5024024;28;20045;-81
2021/09/06 10:13:25;;;;;;;5.57;3.92;;;;;;;20.27;50.86;101708.09;5013217;28;20049;-83
2021/09/06 10:15:57;;;;;;;6.30;4.13;;;;;;;20.91;51.52;101702.50;5050427;28;20056;-82
2021/09/06 10:18:24;;;;;;;5.70;4.05;;;;;;;20.62;50.46;101707.41;5040979;28;20053;-82
2021/09/06 10:20:56;;;;;;;6.05;3.70;;;;;;;20.47;51.08;101706.28;5017202;28;20036;-82
2021/09/06 10:23:25;;;;;;;5.90;3.95;;;;;;;20.47;51.72;101705.44;5001739;28;20040;-82
2021/09/06 10:25:52;;;;;;;6.85;4.28;;;;;;;20.38;52.25;101703.13;5001779;28;20055;-83
2021/09/06 10:28:30;;;;;;;5.97;3.97;;;;;;;20.77;53.75;101695.97;5016656;28;20501;-82
2021/09/06 10:30:58;;;;;;;7.10;4.40;;;;;;;21.11;52.28;101702.44;5032924;28;20080;-82
2021/09/06 10:33:32;;;;;;;7.50;3.90;;;;;;;21.20;49.87;101685.88;5015448;28;20037;-82
2021/09/06 10:36:02;;;;;;;;;;;;;;;21.36;52.13;101691.41;5003046;28;20056;-82
2021/09/06 10:38:48;;;;;;;6.07;4.15;;;;;;;21.56;52.45;101693.09;5031570;28;20019;-82
2021/09/06 10:41:17;;;;;;;6.55;4.22;;;;;;;21.56;51.14;101688.59;5004327;28;20041;-83
2021/09/06 10:43:54;;;;;;;5.15;3.80;;;;;;;21.74;51.28;101689.47;5018998;28;20048;-83
2021/09/06 10:46:27;;;;;;;5.82;4.10;;;;;;;21.86;53.66;101688.88;5029401;28;20407;-83
2021/09/06 10:49:01;;;;;;;6.00;4.22;;;;;;;21.89;50.13;101686.00;5010293;28;20095;-83
2021/09/06 10:51:36;;;;;;;8.20;5.88;;;;;;;21.90;53.04;101687.75;4994708;28;20041;-82
2021/09/06 10:54:06;;;;;;;7.10;5.60;;;;;;;22.01;51.37;101684.50;5019372;28;20044;-83
2021/09/06 10:56:34;;;;;;;7.18;4.70;;;;;;;21.95;51.86;101700.13;5019797;28;20045;-83
2021/09/06 10:59:01;;;;;;;7.10;5.70;;;;;;;21.96;50.94;101688.41;5035775;28;20641;-83
2021/09/06 11:01:30;;;;;;;8.65;5.35;;;;;;;22.08;51.63;101693.16;4994672;28;20064;-83
2021/09/06 11:03:57;;;;;;;6.22;4.57;;;;;;;22.13;51.22;101691.13;5016985;28;20056;-83
2021/09/06 11:06:26;;;;;;;7.60;4.57;;;;;;;21.80;51.52;101694.56;5012017;28;20112;-83
2021/09/06 11:08:53;;;;;;;5.28;4.75;;;;;;;21.88;52.35;101686.09;5018263;28;20045;-83
2021/09/06 11:11:20;;;;;;;6.47;4.65;;;;;;;22.05;54.18;101682.53;5018915;28;20052;-85
2021/09/06 11:13:48;;;;;;;7.47;5.25;;;;;;;22.13;51.53;101691.13;5016878;28;20037;-84
2021/09/06 11:16:18;;;;;;;8.20;4.80;;;;;;;22.14;51.28;101679.38;5015443;28;20092;-82
2021/09/06 11:18:47;;;;;;;5.65;4.70;;;;;;;22.21;53.59;101683.50;5033114;28;20044;-83
2021/09/06 11:21:14;;;;;;;7.00;4.82;;;;;;;22.38;53.17;101683.47;5012340;28;20119;-83
2021/09/06 11:23:45;;;;;;;6.25;4.90;;;;;;;22.19;50.95;101680.00;5024446;28;20033;-83
2021/09/06 11:26:28;;;;;;;8.50;5.18;;;;;;;22.35;51.45;101675.53;5018393;28;20045;-82
2021/09/06 11:28:56;;;;;;;7.30;5.38;;;;;;;22.46;52.33;101675.84;5016800;28;20067;-82